Terminal Aerodrome Forecast
Issued by NWS Charleston, WV

Home | Current Version | Previous Version | Text Only | Print | Product List | Glossary On
Versions: 1 2 3 4 5 6 7 8 9 10 11 12 13 14 15 16 17 18 19 20 21 22 23 24
421
FTUS41 KRLX 250247 AAA
TAFHTS
TAF AMD
KHTS 250247Z 2503/2524 36004KT P6SM SKC
     FM250700 00000KT 4SM BR SCT001
     FM250900 00000KT 1/2SM FG BKN001
     FM251300 02003KT 5SM BR SCT002
     FM251400 03004KT P6SM SKC=

USA.gov is the U.S. government's official web portal to all federal, state and local government web resources and services.